sensor_id;sensor_type;location;lat;lon;timestamp;P1;durP1;ratioP1;P2;durP2;ratioP2
8213;SDS011;4148;47.974;7.824;2022-11-09T00:00:59;10.40;;;6.37;;
8213;SDS011;4148;47.974;7.824;2022-11-09T00:03:28;6.60;;;3.60;;
8213;SDS011;4148;47.974;7.824;2022-11-09T00:05:56;3.87;;;3.13;;
8213;SDS011;4148;47.974;7.824;2022-11-09T00:08:24;4.37;;;2.70;;
8213;SDS011;4148;47.974;7.824;2022-11-09T00:10:52;5.67;;;2.67;;
8213;SDS011;4148;47.974;7.824;2022-11-09T00:13:22;5.43;;;3.17;;
8213;SDS011;4148;47.974;7.824;2022-11-09T00:15:49;4.37;;;2.70;;
8213;SDS011;4148;47.974;7.824;2022-11-09T00:18:17;3.30;;;2.43;;
8213;SDS011;4148;47.974;7.824;2022-11-09T00:20:45;4.57;;;2.30;;
8213;SDS011;4148;47.974;7.824;2022-11-09T00:23:13;3.60;;;2.10;;
8213;SDS011;4148;47.974;7.824;2022-11-09T00:25:42;4.80;;;2.47;;
8213;SDS011;4148;47.974;7.824;2022-11-09T00:28:10;3.23;;;2.50;;
8213;SDS011;4148;47.974;7.824;2022-11-09T00:30:39;3.57;;;2.73;;
8213;SDS011;4148;47.974;7.824;2022-11-09T00:33:07;3.00;;;2.33;;
8213;SDS011;4148;47.974;7.824;2022-11-09T00:35:37;4.63;;;2.50;;
8213;SDS011;4148;47.974;7.824;2022-11-09T00:38:05;3.93;;;2.10;;
8213;SDS011;4148;47.974;7.824;2022-11-09T00:40:33;2.40;;;2.20;;
8213;SDS011;4148;47.974;7.824;2022-11-09T00:43:01;3.73;;;2.50;;
8213;SDS011;4148;47.974;7.824;2022-11-09T00:45:29;3.20;;;2.50;;
8213;SDS011;4148;47.974;7.824;2022-11-09T00:47:58;3.43;;;2.40;;
8213;SDS011;4148;47.974;7.824;2022-11-09T00:50:26;5.93;;;2.40;;
8213;SDS011;4148;47.974;7.824;2022-11-09T00:52:54;2.67;;;2.10;;
8213;SDS011;4148;47.974;7.824;2022-11-09T00:55:22;4.73;;;2.87;;
8213;SDS011;4148;47.974;7.824;2022-11-09T00:57:50;4.00;;;3.33;;
8213;SDS011;4148;47.974;7.824;2022-11-09T01:00:19;5.87;;;3.60;;
8213;SDS011;4148;47.974;7.824;2022-11-09T01:02:48;3.43;;;2.70;;
8213;SDS011;4148;47.974;7.824;2022-11-09T01:05:18;5.13;;;2.90;;
8213;SDS011;4148;47.974;7.824;2022-11-09T01:07:46;3.30;;;2.73;;
8213;SDS011;4148;47.974;7.824;2022-11-09T01:10:14;2.83;;;2.40;;
8213;SDS011;4148;47.974;7.824;2022-11-09T01:12:41;8.90;;;3.07;;
8213;SDS011;4148;47.974;7.824;2022-11-09T01:15:09;4.33;;;3.00;;
8213;SDS011;4148;47.974;7.824;2022-11-09T01:17:37;4.63;;;2.77;;
8213;SDS011;4148;47.974;7.824;2022-11-09T01:20:05;3.57;;;2.80;;
8213;SDS011;4148;47.974;7.824;2022-11-09T01:22:35;5.73;;;2.50;;
8213;SDS011;4148;47.974;7.824;2022-11-09T01:25:03;3.93;;;2.00;;
8213;SDS011;4148;47.974;7.824;2022-11-09T01:27:32;3.10;;;2.10;;
8213;SDS011;4148;47.974;7.824;2022-11-09T01:30:00;2.47;;;1.97;;
8213;SDS011;4148;47.974;7.824;2022-11-09T01:32:30;3.00;;;1.90;;
8213;SDS011;4148;47.974;7.824;2022-11-09T01:34:58;4.40;;;2.10;;
8213;SDS011;4148;47.974;7.824;2022-11-09T01:37:26;4.17;;;2.30;;
8213;SDS011;4148;47.974;7.824;2022-11-09T01:39:55;4.10;;;2.10;;
8213;SDS011;4148;47.974;7.824;2022-11-09T01:42:23;3.33;;;2.47;;
8213;SDS011;4148;47.974;7.824;2022-11-09T01:47:47;3.33;;;2.50;;
8213;SDS011;4148;47.974;7.824;2022-11-09T01:50:20;3.90;;;2.30;;
8213;SDS011;4148;47.974;7.824;2022-11-09T01:52:56;3.17;;;2.70;;
8213;SDS011;4148;47.974;7.824;2022-11-09T01:55:28;4.37;;;2.50;;
8213;SDS011;4148;47.974;7.824;2022-11-09T01:57:58;3.70;;;2.37;;
8213;SDS011;4148;47.974;7.824;2022-11-09T02:00:29;2.80;;;2.00;;
8213;SDS011;4148;47.974;7.824;2022-11-09T02:02:59;5.60;;;2.47;;
8213;SDS011;4148;47.974;7.824;2022-11-09T02:05:31;3.33;;;2.20;;
8213;SDS011;4148;47.974;7.824;2022-11-09T02:08:02;4.93;;;2.20;;
8213;SDS011;4148;47.974;7.824;2022-11-09T02:10:34;3.77;;;2.37;;
8213;SDS011;4148;47.974;7.824;2022-11-09T02:13:07;3.90;;;2.30;;
8213;SDS011;4148;47.974;7.824;2022-11-09T02:15:37;4.30;;;2.47;;
8213;SDS011;4148;47.974;7.824;2022-11-09T02:18:10;3.63;;;2.43;;
8213;SDS011;4148;47.974;7.824;2022-11-09T02:20:44;3.53;;;2.53;;
8213;SDS011;4148;47.974;7.824;2022-11-09T02:23:13;3.10;;;2.50;;
8213;SDS011;4148;47.974;7.824;2022-11-09T02:25:42;2.90;;;2.27;;
8213;SDS011;4148;47.974;7.824;2022-11-09T02:28:14;5.70;;;3.50;;
8213;SDS011;4148;47.974;7.824;2022-11-09T02:30:44;4.40;;;2.27;;
8213;SDS011;4148;47.974;7.824;2022-11-09T02:33:16;3.50;;;3.00;;
8213;SDS011;4148;47.974;7.824;2022-11-09T02:35:46;4.83;;;3.10;;
8213;SDS011;4148;47.974;7.824;2022-11-09T02:38:14;3.70;;;2.80;;
8213;SDS011;4148;47.974;7.824;2022-11-09T02:40:43;5.07;;;3.40;;
8213;SDS011;4148;47.974;7.824;2022-11-09T02:43:14;3.87;;;2.60;;
8213;SDS011;4148;47.974;7.824;2022-11-09T02:45:44;7.77;;;2.77;;
8213;SDS011;4148;47.974;7.824;2022-11-09T02:48:12;5.40;;;2.97;;
8213;SDS011;4148;47.974;7.824;2022-11-09T02:50:40;4.70;;;3.00;;
8213;SDS011;4148;47.974;7.824;2022-11-09T02:53:09;4.80;;;2.77;;
8213;SDS011;4148;47.974;7.824;2022-11-09T02:55:37;3.13;;;2.73;;
8213;SDS011;4148;47.974;7.824;2022-11-09T02:58:05;5.93;;;3.30;;
8213;SDS011;4148;47.974;7.824;2022-11-09T03:00:32;6.50;;;2.90;;
8213;SDS011;4148;47.974;7.824;2022-11-09T03:03:00;4.20;;;2.60;;
8213;SDS011;4148;47.974;7.824;2022-11-09T03:05:29;6.00;;;3.33;;
8213;SDS011;4148;47.974;7.824;2022-11-09T03:07:57;4.40;;;2.60;;
8213;SDS011;4148;47.974;7.824;2022-11-09T03:10:28;5.30;;;3.33;;
8213;SDS011;4148;47.974;7.824;2022-11-09T03:12:56;3.20;;;2.90;;
8213;SDS011;4148;47.974;7.824;2022-11-09T03:15:24;3.10;;;2.80;;
8213;SDS011;4148;47.974;7.824;2022-11-09T03:17:52;4.80;;;2.70;;
8213;SDS011;4148;47.974;7.824;2022-11-09T03:20:20;3.63;;;2.67;;
8213;SDS011;4148;47.974;7.824;2022-11-09T03:22:48;4.73;;;2.83;;
8213;SDS011;4148;47.974;7.824;2022-11-09T03:25:16;5.93;;;2.77;;
8213;SDS011;4148;47.974;7.824;2022-11-09T03:27:45;3.17;;;2.70;;
8213;SDS011;4148;47.974;7.824;2022-11-09T03:30:13;4.23;;;2.63;;
8213;SDS011;4148;47.974;7.824;2022-11-09T03:32:44;3.53;;;3.10;;
8213;SDS011;4148;47.974;7.824;2022-11-09T03:35:15;4.23;;;2.80;;
8213;SDS011;4148;47.974;7.824;2022-11-09T03:37:43;3.37;;;2.60;;
8213;SDS011;4148;47.974;7.824;2022-11-09T03:40:11;5.10;;;2.80;;
8213;SDS011;4148;47.974;7.824;2022-11-09T03:42:42;3.63;;;3.30;;
8213;SDS011;4148;47.974;7.824;2022-11-09T03:45:12;4.27;;;2.67;;
8213;SDS011;4148;47.974;7.824;2022-11-09T03:47:40;2.53;;;2.27;;
8213;SDS011;4148;47.974;7.824;2022-11-09T03:50:09;5.10;;;2.40;;
8213;SDS011;4148;47.974;7.824;2022-11-09T03:52:38;3.40;;;2.30;;
8213;SDS011;4148;47.974;7.824;2022-11-09T03:55:06;3.50;;;2.50;;
8213;SDS011;4148;47.974;7.824;2022-11-09T03:57:34;4.20;;;2.50;;
8213;SDS011;4148;47.974;7.824;2022-11-09T04:00:02;3.20;;;2.20;;
8213;SDS011;4148;47.974;7.824;2022-11-09T04:02:33;3.73;;;2.43;;
8213;SDS011;4148;47.974;7.824;2022-11-09T04:05:01;4.00;;;2.70;;
8213;SDS011;4148;47.974;7.824;2022-11-09T04:07:28;3.33;;;2.50;;
8213;SDS011;4148;47.974;7.824;2022-11-09T04:09:57;4.23;;;2.43;;
8213;SDS011;4148;47.974;7.824;2022-11-09T04:12:24;3.60;;;2.20;;
8213;SDS011;4148;47.974;7.824;2022-11-09T04:14:52;5.07;;;2.60;;
8213;SDS011;4148;47.974;7.824;2022-11-09T04:17:20;3.40;;;2.13;;
8213;SDS011;4148;47.974;7.824;2022-11-09T04:19:49;4.70;;;2.57;;
8213;SDS011;4148;47.974;7.824;2022-11-09T04:22:17;2.97;;;2.67;;
8213;SDS011;4148;47.974;7.824;2022-11-09T04:24:45;2.90;;;2.13;;
8213;SDS011;4148;47.974;7.824;2022-11-09T04:27:13;2.50;;;1.93;;
8213;SDS011;4148;47.974;7.824;2022-11-09T04:29:41;3.63;;;2.20;;
8213;SDS011;4148;47.974;7.824;2022-11-09T04:32:09;3.93;;;2.10;;
8213;SDS011;4148;47.974;7.824;2022-11-09T04:34:37;2.57;;;1.90;;
8213;SDS011;4148;47.974;7.824;2022-11-09T04:37:07;2.67;;;1.73;;
8213;SDS011;4148;47.974;7.824;2022-11-09T04:39:35;3.60;;;1.80;;
8213;SDS011;4148;47.974;7.824;2022-11-09T04:42:03;2.73;;;2.10;;
8213;SDS011;4148;47.974;7.824;2022-11-09T04:44:31;2.47;;;2.17;;
8213;SDS011;4148;47.974;7.824;2022-11-09T04:46:59;3.13;;;2.30;;
8213;SDS011;4148;47.974;7.824;2022-11-09T04:49:27;2.10;;;1.90;;
8213;SDS011;4148;47.974;7.824;2022-11-09T04:51:55;3.27;;;2.00;;
8213;SDS011;4148;47.974;7.824;2022-11-09T04:54:24;4.07;;;2.10;;
8213;SDS011;4148;47.974;7.824;2022-11-09T04:56:52;2.70;;;2.30;;
8213;SDS011;4148;47.974;7.824;2022-11-09T04:59:20;2.50;;;2.10;;
8213;SDS011;4148;47.974;7.824;2022-11-09T05:01:48;3.23;;;2.03;;
8213;SDS011;4148;47.974;7.824;2022-11-09T05:04:16;2.90;;;1.90;;
8213;SDS011;4148;47.974;7.824;2022-11-09T05:06:44;1.93;;;1.60;;
8213;SDS011;4148;47.974;7.824;2022-11-09T05:09:12;4.37;;;1.77;;
8213;SDS011;4148;47.974;7.824;2022-11-09T05:11:41;2.17;;;1.60;;
8213;SDS011;4148;47.974;7.824;2022-11-09T05:14:09;2.63;;;1.97;;
8213;SDS011;4148;47.974;7.824;2022-11-09T05:16:36;2.00;;;1.60;;
8213;SDS011;4148;47.974;7.824;2022-11-09T05:19:04;1.80;;;1.50;;
8213;SDS011;4148;47.974;7.824;2022-11-09T05:21:32;3.77;;;2.20;;
8213;SDS011;4148;47.974;7.824;2022-11-09T05:24:00;2.07;;;1.70;;
8213;SDS011;4148;47.974;7.824;2022-11-09T05:26:28;2.17;;;1.80;;
8213;SDS011;4148;47.974;7.824;2022-11-09T05:28:59;2.37;;;1.70;;
8213;SDS011;4148;47.974;7.824;2022-11-09T05:31:29;6.20;;;1.60;;
8213;SDS011;4148;47.974;7.824;2022-11-09T05:33:58;2.30;;;1.73;;
8213;SDS011;4148;47.974;7.824;2022-11-09T05:36:26;2.30;;;1.57;;
8213;SDS011;4148;47.974;7.824;2022-11-09T05:38:55;1.90;;;1.63;;
8213;SDS011;4148;47.974;7.824;2022-11-09T05:41:24;3.80;;;1.50;;
8213;SDS011;4148;47.974;7.824;2022-11-09T05:43:52;5.50;;;1.90;;
8213;SDS011;4148;47.974;7.824;2022-11-09T05:46:21;2.90;;;1.47;;
8213;SDS011;4148;47.974;7.824;2022-11-09T05:48:50;3.43;;;1.80;;
8213;SDS011;4148;47.974;7.824;2022-11-09T05:51:18;5.13;;;1.77;;
8213;SDS011;4148;47.974;7.824;2022-11-09T05:53:46;2.40;;;1.57;;
8213;SDS011;4148;47.974;7.824;2022-11-09T05:56:14;2.60;;;1.43;;
8213;SDS011;4148;47.974;7.824;2022-11-09T05:58:42;2.00;;;1.60;;
8213;SDS011;4148;47.974;7.824;2022-11-09T06:01:10;2.43;;;1.73;;
8213;SDS011;4148;47.974;7.824;2022-11-09T06:03:41;2.03;;;1.50;;
8213;SDS011;4148;47.974;7.824;2022-11-09T06:06:10;2.23;;;1.60;;
8213;SDS011;4148;47.974;7.824;2022-11-09T06:08:39;4.20;;;1.73;;
8213;SDS011;4148;47.974;7.824;2022-11-09T06:11:08;2.37;;;1.53;;
8213;SDS011;4148;47.974;7.824;2022-11-09T06:13:39;2.83;;;2.03;;
8213;SDS011;4148;47.974;7.824;2022-11-09T06:16:08;2.80;;;2.30;;
8213;SDS011;4148;47.974;7.824;2022-11-09T06:18:36;4.63;;;2.03;;
8213;SDS011;4148;47.974;7.824;2022-11-09T06:21:05;2.60;;;2.17;;
8213;SDS011;4148;47.974;7.824;2022-11-09T06:23:33;2.40;;;1.90;;
8213;SDS011;4148;47.974;7.824;2022-11-09T06:26:02;2.17;;;1.80;;
8213;SDS011;4148;47.974;7.824;2022-11-09T06:28:32;3.60;;;2.00;;
8213;SDS011;4148;47.974;7.824;2022-11-09T06:31:00;3.63;;;2.27;;
8213;SDS011;4148;47.974;7.824;2022-11-09T06:33:30;2.83;;;2.20;;
8213;SDS011;4148;47.974;7.824;2022-11-09T06:35:59;2.60;;;1.60;;
8213;SDS011;4148;47.974;7.824;2022-11-09T06:38:29;2.53;;;1.80;;
8213;SDS011;4148;47.974;7.824;2022-11-09T06:40:57;3.63;;;1.63;;
8213;SDS011;4148;47.974;7.824;2022-11-09T06:43:26;1.93;;;1.30;;
8213;SDS011;4148;47.974;7.824;2022-11-09T06:45:55;4.20;;;2.60;;
8213;SDS011;4148;47.974;7.824;2022-11-09T06:48:23;1.73;;;1.03;;
8213;SDS011;4148;47.974;7.824;2022-11-09T06:50:51;3.40;;;1.60;;
8213;SDS011;4148;47.974;7.824;2022-11-09T06:53:18;2.67;;;1.50;;
8213;SDS011;4148;47.974;7.824;2022-11-09T06:55:48;2.10;;;1.20;;
8213;SDS011;4148;47.974;7.824;2022-11-09T06:58:16;2.67;;;1.37;;
8213;SDS011;4148;47.974;7.824;2022-11-09T07:00:45;3.83;;;1.43;;
8213;SDS011;4148;47.974;7.824;2022-11-09T07:03:13;3.60;;;1.90;;
8213;SDS011;4148;47.974;7.824;2022-11-09T07:05:42;1.60;;;1.20;;
8213;SDS011;4148;47.974;7.824;2022-11-09T07:08:10;2.00;;;1.40;;
8213;SDS011;4148;47.974;7.824;2022-11-09T07:10:38;2.27;;;1.30;;
8213;SDS011;4148;47.974;7.824;2022-11-09T07:13:08;1.90;;;1.40;;
8213;SDS011;4148;47.974;7.824;2022-11-09T07:15:36;1.80;;;1.30;;
8213;SDS011;4148;47.974;7.824;2022-11-09T07:18:06;1.60;;;1.10;;
8213;SDS011;4148;47.974;7.824;2022-11-09T07:20:37;3.77;;;1.47;;
8213;SDS011;4148;47.974;7.824;2022-11-09T07:23:05;2.63;;;1.30;;
8213;SDS011;4148;47.974;7.824;2022-11-09T07:25:33;1.80;;;1.10;;
8213;SDS011;4148;47.974;7.824;2022-11-09T07:28:01;2.70;;;1.40;;
8213;SDS011;4148;47.974;7.824;2022-11-09T07:30:33;2.23;;;1.27;;
8213;SDS011;4148;47.974;7.824;2022-11-09T07:33:03;3.00;;;1.30;;
8213;SDS011;4148;47.974;7.824;2022-11-09T07:35:41;2.43;;;1.33;;
8213;SDS011;4148;47.974;7.824;2022-11-09T07:38:09;2.73;;;1.30;;
8213;SDS011;4148;47.974;7.824;2022-11-09T07:40:37;2.77;;;1.40;;
8213;SDS011;4148;47.974;7.824;2022-11-09T07:43:06;4.00;;;1.50;;
8213;SDS011;4148;47.974;7.824;2022-11-09T07:45:35;2.93;;;1.53;;
8213;SDS011;4148;47.974;7.824;2022-11-09T07:48:04;2.57;;;1.20;;
8213;SDS011;4148;47.974;7.824;2022-11-09T07:50:34;1.63;;;1.30;;
8213;SDS011;4148;47.974;7.824;2022-11-09T07:53:03;2.50;;;1.20;;
8213;SDS011;4148;47.974;7.824;2022-11-09T07:55:33;2.87;;;1.20;;
8213;SDS011;4148;47.974;7.824;2022-11-09T07:58:03;3.00;;;1.40;;
8213;SDS011;4148;47.974;7.824;2022-11-09T08:00:34;2.63;;;1.63;;
8213;SDS011;4148;47.974;7.824;2022-11-09T08:03:04;2.93;;;1.70;;
8213;SDS011;4148;47.974;7.824;2022-11-09T08:05:32;2.60;;;1.57;;
8213;SDS011;4148;47.974;7.824;2022-11-09T08:08:01;2.97;;;1.60;;
8213;SDS011;4148;47.974;7.824;2022-11-09T08:10:31;2.00;;;1.40;;
8213;SDS011;4148;47.974;7.824;2022-11-09T08:13:00;2.63;;;1.80;;
8213;SDS011;4148;47.974;7.824;2022-11-09T08:15:30;2.57;;;1.40;;
8213;SDS011;4148;47.974;7.824;2022-11-09T08:18:00;2.20;;;1.83;;
8213;SDS011;4148;47.974;7.824;2022-11-09T08:20:29;2.37;;;1.33;;
8213;SDS011;4148;47.974;7.824;2022-11-09T08:22:58;1.83;;;1.30;;
8213;SDS011;4148;47.974;7.824;2022-11-09T08:25:30;2.30;;;1.30;;
8213;SDS011;4148;47.974;7.824;2022-11-09T08:27:58;7.03;;;1.20;;
8213;SDS011;4148;47.974;7.824;2022-11-09T08:30:26;1.70;;;1.30;;
8213;SDS011;4148;47.974;7.824;2022-11-09T08:32:54;2.30;;;1.50;;
8213;SDS011;4148;47.974;7.824;2022-11-09T08:35:23;2.33;;;1.30;;
8213;SDS011;4148;47.974;7.824;2022-11-09T08:37:52;2.63;;;2.07;;
8213;SDS011;4148;47.974;7.824;2022-11-09T08:40:21;2.60;;;1.33;;
8213;SDS011;4148;47.974;7.824;2022-11-09T08:42:50;2.40;;;1.40;;
8213;SDS011;4148;47.974;7.824;2022-11-09T08:45:18;2.10;;;1.20;;
8213;SDS011;4148;47.974;7.824;2022-11-09T08:47:46;1.60;;;1.20;;
8213;SDS011;4148;47.974;7.824;2022-11-09T08:50:14;6.30;;;2.17;;
8213;SDS011;4148;47.974;7.824;2022-11-09T08:52:44;2.20;;;1.30;;
8213;SDS011;4148;47.974;7.824;2022-11-09T08:55:12;2.37;;;1.20;;
8213;SDS011;4148;47.974;7.824;2022-11-09T08:57:40;1.90;;;1.30;;
8213;SDS011;4148;47.974;7.824;2022-11-09T09:00:08;2.30;;;1.30;;
8213;SDS011;4148;47.974;7.824;2022-11-09T09:02:36;1.90;;;1.30;;
8213;SDS011;4148;47.974;7.824;2022-11-09T09:05:04;2.27;;;1.30;;
8213;SDS011;4148;47.974;7.824;2022-11-09T09:07:33;2.27;;;1.60;;
8213;SDS011;4148;47.974;7.824;2022-11-09T09:10:02;2.10;;;1.37;;
8213;SDS011;4148;47.974;7.824;2022-11-09T09:12:31;2.50;;;1.30;;
8213;SDS011;4148;47.974;7.824;2022-11-09T09:14:59;2.20;;;1.20;;
8213;SDS011;4148;47.974;7.824;2022-11-09T09:17:27;2.70;;;1.50;;
8213;SDS011;4148;47.974;7.824;2022-11-09T09:19:54;2.13;;;1.67;;
8213;SDS011;4148;47.974;7.824;2022-11-09T09:22:22;2.10;;;1.40;;
8213;SDS011;4148;47.974;7.824;2022-11-09T09:24:50;3.07;;;1.20;;
8213;SDS011;4148;47.974;7.824;2022-11-09T09:27:20;1.90;;;1.40;;
8213;SDS011;4148;47.974;7.824;2022-11-09T09:29:48;2.47;;;1.30;;
8213;SDS011;4148;47.974;7.824;2022-11-09T09:32:15;1.73;;;1.27;;
8213;SDS011;4148;47.974;7.824;2022-11-09T09:34:43;1.90;;;1.30;;
8213;SDS011;4148;47.974;7.824;2022-11-09T09:37:11;2.37;;;1.23;;
8213;SDS011;4148;47.974;7.824;2022-11-09T09:39:39;2.30;;;1.40;;
8213;SDS011;4148;47.974;7.824;2022-11-09T09:42:07;2.00;;;1.20;;
8213;SDS011;4148;47.974;7.824;2022-11-09T09:44:43;5.57;;;1.27;;
8213;SDS011;4148;47.974;7.824;2022-11-09T09:47:16;1.83;;;1.10;;
8213;SDS011;4148;47.974;7.824;2022-11-09T09:49:48;1.50;;;1.00;;
8213;SDS011;4148;47.974;7.824;2022-11-09T09:52:22;2.00;;;1.40;;
8213;SDS011;4148;47.974;7.824;2022-11-09T09:54:58;4.43;;;1.20;;
8213;SDS011;4148;47.974;7.824;2022-11-09T09:57:31;1.60;;;1.00;;
8213;SDS011;4148;47.974;7.824;2022-11-09T10:00:09;2.33;;;1.00;;
8213;SDS011;4148;47.974;7.824;2022-11-09T10:02:45;2.97;;;1.23;;
8213;SDS011;4148;47.974;7.824;2022-11-09T10:05:14;2.23;;;1.20;;
8213;SDS011;4148;47.974;7.824;2022-11-09T10:07:44;1.70;;;1.20;;
8213;SDS011;4148;47.974;7.824;2022-11-09T10:10:27;1.90;;;1.10;;
8213;SDS011;4148;47.974;7.824;2022-11-09T10:13:17;1.50;;;1.00;;
8213;SDS011;4148;47.974;7.824;2022-11-09T10:15:57;1.50;;;0.93;;
8213;SDS011;4148;47.974;7.824;2022-11-09T10:18:34;1.40;;;1.10;;
8213;SDS011;4148;47.974;7.824;2022-11-09T10:21:10;1.50;;;0.97;;
8213;SDS011;4148;47.974;7.824;2022-11-09T10:23:52;1.83;;;0.87;;
8213;SDS011;4148;47.974;7.824;2022-11-09T10:26:32;2.20;;;1.23;;
8213;SDS011;4148;47.974;7.824;2022-11-09T10:29:18;1.50;;;1.00;;
8213;SDS011;4148;47.974;7.824;2022-11-09T10:31:51;1.40;;;0.90;;
8213;SDS011;4148;47.974;7.824;2022-11-09T10:34:22;1.53;;;1.30;;
8213;SDS011;4148;47.974;7.824;2022-11-09T10:36:58;1.80;;;1.20;;
8213;SDS011;4148;47.974;7.824;2022-11-09T10:39:34;2.37;;;1.03;;
8213;SDS011;4148;47.974;7.824;2022-11-09T10:42:08;1.60;;;1.00;;
8213;SDS011;4148;47.974;7.824;2022-11-09T10:44:37;2.20;;;1.10;;
8213;SDS011;4148;47.974;7.824;2022-11-09T10:47:08;3.73;;;1.10;;
8213;SDS011;4148;47.974;7.824;2022-11-09T10:49:37;2.17;;;0.97;;
8213;SDS011;4148;47.974;7.824;2022-11-09T10:57:49;1.50;;;1.03;;
8213;SDS011;4148;47.974;7.824;2022-11-09T11:00:36;1.87;;;1.10;;
8213;SDS011;4148;47.974;7.824;2022-11-09T11:03:24;1.40;;;0.93;;
8213;SDS011;4148;47.974;7.824;2022-11-09T11:05:55;1.70;;;1.30;;
8213;SDS011;4148;47.974;7.824;2022-11-09T11:08:29;3.93;;;1.10;;
8213;SDS011;4148;47.974;7.824;2022-11-09T11:11:19;3.90;;;1.10;;
8213;SDS011;4148;47.974;7.824;2022-11-09T11:16:55;2.63;;;1.70;;
8213;SDS011;4148;47.974;7.824;2022-11-09T11:22:16;5.10;;;2.97;;
8213;SDS011;4148;47.974;7.824;2022-11-09T11:24:55;7.50;;;5.50;;
8213;SDS011;4148;47.974;7.824;2022-11-09T11:27:27;4.87;;;3.37;;
8213;SDS011;4148;47.974;7.824;2022-11-09T11:30:02;2.80;;;1.83;;
8213;SDS011;4148;47.974;7.824;2022-11-09T11:32:35;3.67;;;1.90;;
8213;SDS011;4148;47.974;7.824;2022-11-09T11:35:11;3.10;;;2.53;;
8213;SDS011;4148;47.974;7.824;2022-11-09T11:37:45;5.20;;;3.47;;
8213;SDS011;4148;47.974;7.824;2022-11-09T11:40:24;4.00;;;2.47;;
8213;SDS011;4148;47.974;7.824;2022-11-09T11:42:59;6.67;;;4.70;;
8213;SDS011;4148;47.974;7.824;2022-11-09T11:45:39;4.30;;;3.00;;
8213;SDS011;4148;47.974;7.824;2022-11-09T11:48:22;10.23;;;6.07;;
8213;SDS011;4148;47.974;7.824;2022-11-09T11:51:06;2.50;;;1.63;;
8213;SDS011;4148;47.974;7.824;2022-11-09T11:53:46;3.60;;;2.90;;
8213;SDS011;4148;47.974;7.824;2022-11-09T11:56:25;9.00;;;5.93;;
8213;SDS011;4148;47.974;7.824;2022-11-09T12:01:55;2.20;;;1.80;;
8213;SDS011;4148;47.974;7.824;2022-11-09T12:07:44;2.70;;;2.00;;
8213;SDS011;4148;47.974;7.824;2022-11-09T12:10:25;5.87;;;5.30;;
8213;SDS011;4148;47.974;7.824;2022-11-09T12:13:06;3.60;;;3.30;;
8213;SDS011;4148;47.974;7.824;2022-11-09T12:15:47;7.13;;;6.40;;
8213;SDS011;4148;47.974;7.824;2022-11-09T12:18:25;5.10;;;4.57;;
8213;SDS011;4148;47.974;7.824;2022-11-09T12:21:07;9.03;;;8.17;;
8213;SDS011;4148;47.974;7.824;2022-11-09T12:23:46;9.10;;;8.20;;
8213;SDS011;4148;47.974;7.824;2022-11-09T12:26:30;14.47;;;13.07;;
8213;SDS011;4148;47.974;7.824;2022-11-09T12:29:10;9.70;;;8.80;;
8213;SDS011;4148;47.974;7.824;2022-11-09T12:31:47;6.23;;;5.23;;
8213;SDS011;4148;47.974;7.824;2022-11-09T12:34:26;6.30;;;5.43;;
8213;SDS011;4148;47.974;7.824;2022-11-09T12:37:00;6.07;;;5.50;;
8213;SDS011;4148;47.974;7.824;2022-11-09T12:39:34;8.43;;;7.47;;
8213;SDS011;4148;47.974;7.824;2022-11-09T12:42:05;2.87;;;2.47;;
8213;SDS011;4148;47.974;7.824;2022-11-09T12:44:39;4.73;;;3.80;;
8213;SDS011;4148;47.974;7.824;2022-11-09T12:47:11;5.80;;;3.40;;
8213;SDS011;4148;47.974;7.824;2022-11-09T12:49:43;5.63;;;3.23;;
8213;SDS011;4148;47.974;7.824;2022-11-09T12:52:13;3.30;;;2.03;;
8213;SDS011;4148;47.974;7.824;2022-11-09T12:54:46;3.70;;;2.93;;
8213;SDS011;4148;47.974;7.824;2022-11-09T12:57:16;2.70;;;2.50;;
8213;SDS011;4148;47.974;7.824;2022-11-09T12:59:49;4.50;;;3.03;;
8213;SDS011;4148;47.974;7.824;2022-11-09T13:02:20;4.07;;;2.43;;
8213;SDS011;4148;47.974;7.824;2022-11-09T13:05:03;8.50;;;6.40;;
8213;SDS011;4148;47.974;7.824;2022-11-09T13:10:25;7.00;;;1.73;;
8213;SDS011;4148;47.974;7.824;2022-11-09T13:13:03;4.50;;;1.40;;
8213;SDS011;4148;47.974;7.824;2022-11-09T13:18:56;3.30;;;2.30;;
8213;SDS011;4148;47.974;7.824;2022-11-09T13:21:34;5.10;;;1.57;;
8213;SDS011;4148;47.974;7.824;2022-11-09T13:27:38;2.20;;;1.37;;
8213;SDS011;4148;47.974;7.824;2022-11-09T13:33:17;2.30;;;1.90;;
8213;SDS011;4148;47.974;7.824;2022-11-09T13:35:55;4.07;;;2.33;;
8213;SDS011;4148;47.974;7.824;2022-11-09T13:41:54;3.70;;;1.80;;
8213;SDS011;4148;47.974;7.824;2022-11-09T13:44:25;3.07;;;1.70;;
8213;SDS011;4148;47.974;7.824;2022-11-09T13:47:01;2.67;;;1.90;;
8213;SDS011;4148;47.974;7.824;2022-11-09T13:49:40;1.93;;;1.40;;
8213;SDS011;4148;47.974;7.824;2022-11-09T13:55:21;2.43;;;1.50;;
8213;SDS011;4148;47.974;7.824;2022-11-09T13:57:51;2.73;;;1.77;;
8213;SDS011;4148;47.974;7.824;2022-11-09T14:00:23;3.33;;;2.27;;
8213;SDS011;4148;47.974;7.824;2022-11-09T14:02:53;3.87;;;2.20;;
8213;SDS011;4148;47.974;7.824;2022-11-09T14:05:23;3.67;;;1.70;;
8213;SDS011;4148;47.974;7.824;2022-11-09T14:07:52;3.70;;;1.90;;
8213;SDS011;4148;47.974;7.824;2022-11-09T14:16:32;3.77;;;2.00;;
8213;SDS011;4148;47.974;7.824;2022-11-09T14:19:14;4.60;;;2.10;;
8213;SDS011;4148;47.974;7.824;2022-11-09T14:21:52;2.40;;;1.80;;
8213;SDS011;4148;47.974;7.824;2022-11-09T14:24:21;3.10;;;2.10;;
8213;SDS011;4148;47.974;7.824;2022-11-09T14:29:46;2.67;;;1.73;;
8213;SDS011;4148;47.974;7.824;2022-11-09T14:35:10;2.70;;;2.40;;
8213;SDS011;4148;47.974;7.824;2022-11-09T14:37:44;5.40;;;2.93;;
8213;SDS011;4148;47.974;7.824;2022-11-09T14:40:16;2.83;;;2.40;;
8213;SDS011;4148;47.974;7.824;2022-11-09T14:42:47;3.30;;;2.90;;
8213;SDS011;4148;47.974;7.824;2022-11-09T14:45:17;5.50;;;2.83;;
8213;SDS011;4148;47.974;7.824;2022-11-09T14:47:47;3.90;;;3.23;;
8213;SDS011;4148;47.974;7.824;2022-11-09T14:50:19;3.60;;;2.70;;
8213;SDS011;4148;47.974;7.824;2022-11-09T14:52:49;3.80;;;3.40;;
8213;SDS011;4148;47.974;7.824;2022-11-09T14:55:19;1.80;;;1.50;;
8213;SDS011;4148;47.974;7.824;2022-11-09T14:57:49;3.03;;;1.40;;
8213;SDS011;4148;47.974;7.824;2022-11-09T15:00:20;2.10;;;1.60;;
8213;SDS011;4148;47.974;7.824;2022-11-09T15:02:51;7.87;;;4.30;;
8213;SDS011;4148;47.974;7.824;2022-11-09T15:05:26;7.37;;;5.23;;
8213;SDS011;4148;47.974;7.824;2022-11-09T15:07:56;6.70;;;4.77;;
8213;SDS011;4148;47.974;7.824;2022-11-09T15:10:25;4.63;;;3.23;;
8213;SDS011;4148;47.974;7.824;2022-11-09T15:12:55;2.60;;;2.40;;
8213;SDS011;4148;47.974;7.824;2022-11-09T15:15:27;2.53;;;1.50;;
8213;SDS011;4148;47.974;7.824;2022-11-09T15:17:57;2.33;;;2.03;;
8213;SDS011;4148;47.974;7.824;2022-11-09T15:20:28;3.30;;;2.63;;
8213;SDS011;4148;47.974;7.824;2022-11-09T15:22:58;4.10;;;2.97;;
8213;SDS011;4148;47.974;7.824;2022-11-09T15:25:29;2.60;;;2.30;;
8213;SDS011;4148;47.974;7.824;2022-11-09T15:28:17;4.20;;;2.30;;
8213;SDS011;4148;47.974;7.824;2022-11-09T15:30:48;2.70;;;2.00;;
8213;SDS011;4148;47.974;7.824;2022-11-09T15:33:40;2.50;;;1.70;;
8213;SDS011;4148;47.974;7.824;2022-11-09T15:36:20;4.70;;;2.03;;
8213;SDS011;4148;47.974;7.824;2022-11-09T15:38:55;2.80;;;2.30;;
8213;SDS011;4148;47.974;7.824;2022-11-09T15:41:35;5.40;;;2.73;;
8213;SDS011;4148;47.974;7.824;2022-11-09T15:44:03;4.40;;;3.10;;
8213;SDS011;4148;47.974;7.824;2022-11-09T15:46:32;4.43;;;3.13;;
8213;SDS011;4148;47.974;7.824;2022-11-09T15:49:10;8.07;;;3.80;;
8213;SDS011;4148;47.974;7.824;2022-11-09T15:51:41;5.80;;;3.60;;
8213;SDS011;4148;47.974;7.824;2022-11-09T15:54:10;6.10;;;3.50;;
8213;SDS011;4148;47.974;7.824;2022-11-09T15:56:38;4.10;;;3.10;;
8213;SDS011;4148;47.974;7.824;2022-11-09T15:59:07;4.33;;;2.80;;
8213;SDS011;4148;47.974;7.824;2022-11-09T16:01:37;3.50;;;2.57;;
8213;SDS011;4148;47.974;7.824;2022-11-09T16:04:07;3.20;;;2.10;;
8213;SDS011;4148;47.974;7.824;2022-11-09T16:06:35;5.00;;;1.80;;
8213;SDS011;4148;47.974;7.824;2022-11-09T16:09:09;3.20;;;1.90;;
8213;SDS011;4148;47.974;7.824;2022-11-09T16:11:36;3.40;;;1.70;;
8213;SDS011;4148;47.974;7.824;2022-11-09T16:14:04;3.07;;;2.10;;
8213;SDS011;4148;47.974;7.824;2022-11-09T16:16:33;3.07;;;2.27;;
8213;SDS011;4148;47.974;7.824;2022-11-09T16:19:01;3.50;;;2.30;;
8213;SDS011;4148;47.974;7.824;2022-11-09T16:21:30;3.63;;;2.70;;
8213;SDS011;4148;47.974;7.824;2022-11-09T16:23:58;4.00;;;2.53;;
8213;SDS011;4148;47.974;7.824;2022-11-09T16:26:26;3.10;;;2.40;;
8213;SDS011;4148;47.974;7.824;2022-11-09T16:28:54;3.43;;;2.40;;